Benton Ridge, OH (45816)

3:09 AM EDT on August 26, 2016 (GMT -0400)
Findlay | | Change Station

Elev 810 ft 41.01 °N, 83.67 °W | Updated 16 minutes ago

Overcast
Overcast
73 °F
Feels Like 73 °F
N
0
Wind Variable Wind from North

Today
High -- | Low -- °F
--% Chance of Precip.
Yesterday
High -- | Low -- °F
Precip. -- in
Pressure 30.06 in
Visibility 10.0 miles
Clouds Overcast 2500 ft
Dew Point 68 °F
Humidity 84%
Rainfall 0.00 in
Snow Depth Not available.
6:56 AM 8:16 PM
Last Quarter, 37% visible
METAR KFDY 260653Z AUTO 00000KT 10SM OVC025 23/20 A3009 RMK AO2 SLP177 T02280200
Pressure 30.06 in
Visibility 10.0 miles
Clouds Overcast 2500 ft
Dew Point 68 °F
Humidity 84%
Rainfall 0.00 in
Snow Depth Not available.
6:56 AM 8:16 PM
Last Quarter, 37% visible
METAR KFDY 260653Z AUTO 00000KT 10SM OVC025 23/20 A3009 RMK AO2 SLP177 T02280200

10-Day Weather Forecast

Almanac

Astronomy

Aug. 26, 2016 Rise Set
Actual Time
Civil Twilight
Nautical Twilight
Astronomical Twilight
Moon
Length of Visible Light
Length of Day
Tomorrow will be .
, % of the Moon is Illuminated

Today's Extremes

State Highs State Lows

Community

WunderPhotos

Upload Photos

1,935,063 photos uploaded!

WunderBlog® & News

Nearby

Air Quality

  Air Quality AQ Index Pollutant
Not available.

Snow Depth

Station Depth Elevation

Earthquake Activity

City Distance Mag. Time & Date
Minimum magnitude displayed is 2.5.

Coastal Water Temperatures

Place Temperature

Stations

Nearby Weather Stations

Station Location Temp. Windchill Dew Point Humidity Wind Precip. Elev Updated Type
                   

Watches & Warnings

There are currently no watches in effect.